sensor_id;sensor_type;location;lat;lon;timestamp;pressure;altitude;pressure_sealevel;temperature;humidity
73429;BME280;61643;49.564;17.412;2023-12-20T00:01:50;97860.34;;;0.42;100.00
73429;BME280;61643;49.564;17.412;2023-12-20T00:04:16;97857.69;;;0.29;100.00
73429;BME280;61643;49.564;17.412;2023-12-20T00:06:42;97855.41;;;0.26;100.00
73429;BME280;61643;49.564;17.412;2023-12-20T00:09:07;97845.47;;;0.28;100.00
73429;BME280;61643;49.564;17.412;2023-12-20T00:11:33;97840.78;;;0.36;100.00
73429;BME280;61643;49.564;17.412;2023-12-20T00:13:59;97834.28;;;0.45;100.00
73429;BME280;61643;49.564;17.412;2023-12-20T00:16:25;97825.53;;;0.45;100.00
73429;BME280;61643;49.564;17.412;2023-12-20T00:18:52;97825.13;;;0.55;100.00
73429;BME280;61643;49.564;17.412;2023-12-20T00:21:18;97812.06;;;0.40;100.00
73429;BME280;61643;49.564;17.412;2023-12-20T00:23:44;97811.06;;;0.34;100.00
73429;BME280;61643;49.564;17.412;2023-12-20T00:26:10;97809.25;;;0.41;100.00
73429;BME280;61643;49.564;17.412;2023-12-20T00:28:36;97813.13;;;0.39;100.00
73429;BME280;61643;49.564;17.412;2023-12-20T00:31:02;97795.19;;;0.41;100.00
73429;BME280;61643;49.564;17.412;2023-12-20T00:33:28;97812.06;;;0.33;100.00
73429;BME280;61643;49.564;17.412;2023-12-20T00:35:54;97809.41;;;0.20;100.00
73429;BME280;61643;49.564;17.412;2023-12-20T00:38:20;97810.84;;;0.16;100.00
73429;BME280;61643;49.564;17.412;2023-12-20T00:40:46;97799.59;;;0.01;100.00
73429;BME280;61643;49.564;17.412;2023-12-20T00:43:12;97803.63;;;-0.16;100.00
73429;BME280;61643;49.564;17.412;2023-12-20T00:45:38;97799.56;;;-0.12;100.00
73429;BME280;61643;49.564;17.412;2023-12-20T00:48:04;97792.44;;;-0.18;100.00
73429;BME280;61643;49.564;17.412;2023-12-20T00:50:31;97791.88;;;-0.01;100.00
73429;BME280;61643;49.564;17.412;2023-12-20T00:52:57;97794.94;;;0.10;100.00
73429;BME280;61643;49.564;17.412;2023-12-20T00:55:23;97792.09;;;0.11;100.00
73429;BME280;61643;49.564;17.412;2023-12-20T00:57:49;97786.00;;;0.17;100.00
73429;BME280;61643;49.564;17.412;2023-12-20T01:00:15;97788.25;;;0.27;100.00
73429;BME280;61643;49.564;17.412;2023-12-20T01:02:41;97769.94;;;0.32;100.00
73429;BME280;61643;49.564;17.412;2023-12-20T01:05:07;97773.41;;;0.39;100.00
73429;BME280;61643;49.564;17.412;2023-12-20T01:07:35;97763.00;;;0.44;100.00
73429;BME280;61643;49.564;17.412;2023-12-20T01:10:01;97760.56;;;0.56;100.00
73429;BME280;61643;49.564;17.412;2023-12-20T01:12:27;97773.41;;;0.59;100.00
73429;BME280;61643;49.564;17.412;2023-12-20T01:14:53;97760.16;;;0.72;100.00
73429;BME280;61643;49.564;17.412;2023-12-20T01:17:19;97766.25;;;0.79;100.00
73429;BME280;61643;49.564;17.412;2023-12-20T01:19:45;97771.53;;;0.92;100.00
73429;BME280;61643;49.564;17.412;2023-12-20T01:22:11;97770.72;;;0.85;100.00
73429;BME280;61643;49.564;17.412;2023-12-20T01:24:37;97751.34;;;0.91;100.00
73429;BME280;61643;49.564;17.412;2023-12-20T01:27:03;97755.22;;;0.95;100.00
73429;BME280;61643;49.564;17.412;2023-12-20T01:29:29;97751.34;;;1.04;100.00
73429;BME280;61643;49.564;17.412;2023-12-20T01:31:55;97747.84;;;1.10;100.00
73429;BME280;61643;49.564;17.412;2023-12-20T01:34:21;97754.56;;;1.13;100.00
73429;BME280;61643;49.564;17.412;2023-12-20T01:36:47;97750.69;;;1.22;100.00
73429;BME280;61643;49.564;17.412;2023-12-20T01:39:12;97753.72;;;1.25;100.00
73429;BME280;61643;49.564;17.412;2023-12-20T01:41:39;97759.63;;;1.27;100.00
73429;BME280;61643;49.564;17.412;2023-12-20T01:44:05;97755.75;;;1.30;100.00
73429;BME280;61643;49.564;17.412;2023-12-20T01:46:31;97754.53;;;1.32;100.00
73429;BME280;61643;49.564;17.412;2023-12-20T01:48:57;97756.31;;;1.38;100.00
73429;BME280;61643;49.564;17.412;2023-12-20T01:51:24;97751.06;;;1.32;100.00
73429;BME280;61643;49.564;17.412;2023-12-20T01:53:55;97739.41;;;1.39;100.00
73429;BME280;61643;49.564;17.412;2023-12-20T01:56:21;97729.78;;;1.45;100.00
73429;BME280;61643;49.564;17.412;2023-12-20T01:58:47;97734.47;;;1.49;100.00
73429;BME280;61643;49.564;17.412;2023-12-20T02:01:14;97734.03;;;1.53;100.00
73429;BME280;61643;49.564;17.412;2023-12-20T02:03:41;97728.72;;;1.59;100.00
73429;BME280;61643;49.564;17.412;2023-12-20T02:06:09;97726.66;;;1.61;100.00
73429;BME280;61643;49.564;17.412;2023-12-20T02:08:35;97721.56;;;1.60;100.00
73429;BME280;61643;49.564;17.412;2023-12-20T02:11:01;97714.66;;;1.52;100.00
73429;BME280;61643;49.564;17.412;2023-12-20T02:13:27;97731.38;;;1.53;100.00
73429;BME280;61643;49.564;17.412;2023-12-20T02:15:54;97718.13;;;1.53;100.00
73429;BME280;61643;49.564;17.412;2023-12-20T02:18:21;97717.91;;;1.54;100.00
73429;BME280;61643;49.564;17.412;2023-12-20T02:20:47;97707.09;;;1.56;100.00
73429;BME280;61643;49.564;17.412;2023-12-20T02:23:13;97708.75;;;1.50;100.00
73429;BME280;61643;49.564;17.412;2023-12-20T02:25:39;97702.59;;;1.56;100.00
73429;BME280;61643;49.564;17.412;2023-12-20T02:28:05;97694.47;;;1.51;100.00
73429;BME280;61643;49.564;17.412;2023-12-20T02:30:31;97693.03;;;1.48;100.00
73429;BME280;61643;49.564;17.412;2023-12-20T02:32:59;97697.72;;;1.53;100.00
73429;BME280;61643;49.564;17.412;2023-12-20T02:35:25;97683.63;;;1.59;100.00
73429;BME280;61643;49.564;17.412;2023-12-20T02:37:51;97682.63;;;1.54;100.00
73429;BME280;61643;49.564;17.412;2023-12-20T02:40:17;97683.00;;;1.57;100.00
73429;BME280;61643;49.564;17.412;2023-12-20T02:42:43;97683.63;;;1.59;100.00
73429;BME280;61643;49.564;17.412;2023-12-20T02:45:09;97676.66;;;1.65;100.00
73429;BME280;61643;49.564;17.412;2023-12-20T02:47:35;97679.34;;;1.58;100.00
73429;BME280;61643;49.564;17.412;2023-12-20T02:50:01;97680.00;;;1.47;100.00
73429;BME280;61643;49.564;17.412;2023-12-20T02:52:28;97683.25;;;1.49;100.00
73429;BME280;61643;49.564;17.412;2023-12-20T02:54:54;97689.75;;;1.53;100.00
73429;BME280;61643;49.564;17.412;2023-12-20T02:57:20;97682.88;;;1.45;100.00
73429;BME280;61643;49.564;17.412;2023-12-20T02:59:46;97686.72;;;1.49;100.00
73429;BME280;61643;49.564;17.412;2023-12-20T03:02:12;97689.38;;;1.49;100.00
73429;BME280;61643;49.564;17.412;2023-12-20T03:04:38;97681.09;;;1.33;100.00
73429;BME280;61643;49.564;17.412;2023-12-20T03:07:04;97678.03;;;1.36;100.00
73429;BME280;61643;49.564;17.412;2023-12-20T03:09:30;97670.91;;;1.36;100.00
73429;BME280;61643;49.564;17.412;2023-12-20T03:11:56;97662.31;;;1.34;100.00
73429;BME280;61643;49.564;17.412;2023-12-20T03:14:22;97658.50;;;1.24;100.00
73429;BME280;61643;49.564;17.412;2023-12-20T03:16:51;97658.72;;;1.22;100.00
73429;BME280;61643;49.564;17.412;2023-12-20T03:19:18;97658.34;;;1.19;100.00
73429;BME280;61643;49.564;17.412;2023-12-20T03:21:45;97658.16;;;1.14;100.00
73429;BME280;61643;49.564;17.412;2023-12-20T03:24:11;97659.16;;;1.13;100.00
73429;BME280;61643;49.564;17.412;2023-12-20T03:26:37;97651.59;;;1.16;100.00
73429;BME280;61643;49.564;17.412;2023-12-20T03:29:03;97652.00;;;1.20;100.00
73429;BME280;61643;49.564;17.412;2023-12-20T03:31:29;97648.78;;;1.11;100.00
73429;BME280;61643;49.564;17.412;2023-12-20T03:33:55;97644.47;;;1.17;100.00
73429;BME280;61643;49.564;17.412;2023-12-20T03:36:21;97659.97;;;1.13;100.00
73429;BME280;61643;49.564;17.412;2023-12-20T03:38:47;97653.22;;;1.17;100.00
73429;BME280;61643;49.564;17.412;2023-12-20T03:41:13;97626.97;;;1.16;100.00
73429;BME280;61643;49.564;17.412;2023-12-20T03:43:39;97636.75;;;1.15;100.00
73429;BME280;61643;49.564;17.412;2023-12-20T03:46:08;97633.50;;;1.07;100.00
73429;BME280;61643;49.564;17.412;2023-12-20T03:48:34;97625.78;;;0.98;100.00
73429;BME280;61643;49.564;17.412;2023-12-20T03:51:00;97619.28;;;0.94;100.00
73429;BME280;61643;49.564;17.412;2023-12-20T03:53:26;97621.53;;;0.97;100.00
73429;BME280;61643;49.564;17.412;2023-12-20T03:55:52;97626.44;;;0.94;100.00
73429;BME280;61643;49.564;17.412;2023-12-20T03:58:18;97635.84;;;0.90;100.00
73429;BME280;61643;49.564;17.412;2023-12-20T04:00:44;97665.94;;;1.02;100.00
73429;BME280;61643;49.564;17.412;2023-12-20T04:03:10;97669.41;;;1.03;100.00
73429;BME280;61643;49.564;17.412;2023-12-20T04:05:40;97665.97;;;0.95;100.00
73429;BME280;61643;49.564;17.412;2023-12-20T04:08:07;97666.97;;;1.01;100.00
73429;BME280;61643;49.564;17.412;2023-12-20T04:10:33;97672.91;;;0.96;100.00
73429;BME280;61643;49.564;17.412;2023-12-20T04:12:59;97646.44;;;0.90;100.00
73429;BME280;61643;49.564;17.412;2023-12-20T04:15:25;97642.97;;;0.89;100.00
73429;BME280;61643;49.564;17.412;2023-12-20T04:17:51;97632.97;;;0.85;100.00
73429;BME280;61643;49.564;17.412;2023-12-20T04:20:17;97624.03;;;0.86;100.00
73429;BME280;61643;49.564;17.412;2023-12-20T04:22:43;97603.88;;;0.78;100.00
73429;BME280;61643;49.564;17.412;2023-12-20T04:25:09;97573.56;;;0.68;100.00
73429;BME280;61643;49.564;17.412;2023-12-20T04:27:35;97567.84;;;0.71;100.00
73429;BME280;61643;49.564;17.412;2023-12-20T04:30:01;97578.84;;;0.74;100.00
73429;BME280;61643;49.564;17.412;2023-12-20T04:32:27;97607.38;;;0.72;100.00
73429;BME280;61643;49.564;17.412;2023-12-20T04:34:53;97602.63;;;0.81;100.00
73429;BME280;61643;49.564;17.412;2023-12-20T04:37:19;97602.41;;;0.89;100.00
73429;BME280;61643;49.564;17.412;2023-12-20T04:39:45;97601.38;;;0.90;100.00
73429;BME280;61643;49.564;17.412;2023-12-20T04:42:11;97611.13;;;0.96;100.00
73429;BME280;61643;49.564;17.412;2023-12-20T04:44:37;97625.78;;;0.98;100.00
73429;BME280;61643;49.564;17.412;2023-12-20T04:47:03;97632.91;;;0.98;100.00
73429;BME280;61643;49.564;17.412;2023-12-20T04:49:29;97660.25;;;0.92;100.00
73429;BME280;61643;49.564;17.412;2023-12-20T04:51:55;97661.47;;;0.96;100.00
73429;BME280;61643;49.564;17.412;2023-12-20T04:54:22;97665.50;;;1.05;100.00
73429;BME280;61643;49.564;17.412;2023-12-20T04:56:48;97640.22;;;1.09;100.00
73429;BME280;61643;49.564;17.412;2023-12-20T04:59:14;97612.53;;;0.98;100.00
73429;BME280;61643;49.564;17.412;2023-12-20T05:01:40;97609.72;;;0.93;100.00
73429;BME280;61643;49.564;17.412;2023-12-20T05:04:07;97632.53;;;1.01;100.00
73429;BME280;61643;49.564;17.412;2023-12-20T05:06:33;97653.72;;;1.01;100.00
73429;BME280;61643;49.564;17.412;2023-12-20T05:08:59;97630.94;;;0.93;100.00
73429;BME280;61643;49.564;17.412;2023-12-20T05:11:25;97641.94;;;0.84;100.00
73429;BME280;61643;49.564;17.412;2023-12-20T05:13:51;97649.06;;;0.96;100.00
73429;BME280;61643;49.564;17.412;2023-12-20T05:16:17;97651.66;;;1.03;100.00
73429;BME280;61643;49.564;17.412;2023-12-20T05:18:45;97648.22;;;0.96;100.00
73429;BME280;61643;49.564;17.412;2023-12-20T05:21:11;97627.88;;;0.90;100.00
73429;BME280;61643;49.564;17.412;2023-12-20T05:23:37;97636.81;;;0.95;100.00
73429;BME280;61643;49.564;17.412;2023-12-20T05:26:03;97640.47;;;1.01;100.00
73429;BME280;61643;49.564;17.412;2023-12-20T05:28:29;97635.78;;;1.03;100.00
73429;BME280;61643;49.564;17.412;2023-12-20T05:30:55;97639.84;;;0.99;100.00
73429;BME280;61643;49.564;17.412;2023-12-20T05:33:21;97647.59;;;1.01;100.00
73429;BME280;61643;49.564;17.412;2023-12-20T05:35:47;97645.19;;;0.92;100.00
73429;BME280;61643;49.564;17.412;2023-12-20T05:38:13;97636.78;;;1.02;100.00
73429;BME280;61643;49.564;17.412;2023-12-20T05:40:38;97627.63;;;0.98;100.00
73429;BME280;61643;49.564;17.412;2023-12-20T05:43:04;97628.47;;;0.92;100.00
73429;BME280;61643;49.564;17.412;2023-12-20T05:45:30;97632.56;;;0.88;100.00
73429;BME280;61643;49.564;17.412;2023-12-20T05:47:56;97621.41;;;0.79;100.00
73429;BME280;61643;49.564;17.412;2023-12-20T05:50:22;97624.44;;;0.83;100.00
73429;BME280;61643;49.564;17.412;2023-12-20T05:52:48;97622.38;;;0.85;100.00
73429;BME280;61643;49.564;17.412;2023-12-20T05:55:14;97627.03;;;0.96;100.00
73429;BME280;61643;49.564;17.412;2023-12-20T05:57:40;97636.84;;;0.89;100.00
73429;BME280;61643;49.564;17.412;2023-12-20T06:00:09;97644.00;;;0.82;100.00
73429;BME280;61643;49.564;17.412;2023-12-20T06:02:35;97653.34;;;0.97;100.00
73429;BME280;61643;49.564;17.412;2023-12-20T06:05:04;97643.53;;;0.98;100.00
73429;BME280;61643;49.564;17.412;2023-12-20T06:07:30;97636.38;;;0.98;100.00
73429;BME280;61643;49.564;17.412;2023-12-20T06:09:56;97639.13;;;0.79;100.00
73429;BME280;61643;49.564;17.412;2023-12-20T06:12:22;97643.78;;;0.90;100.00
73429;BME280;61643;49.564;17.412;2023-12-20T06:14:48;97635.03;;;0.83;100.00
73429;BME280;61643;49.564;17.412;2023-12-20T06:17:14;97638.72;;;0.75;100.00
73429;BME280;61643;49.564;17.412;2023-12-20T06:19:40;97629.91;;;0.88;100.00
73429;BME280;61643;49.564;17.412;2023-12-20T06:22:10;97643.16;;;0.88;100.00
73429;BME280;61643;49.564;17.412;2023-12-20T06:24:36;97634.81;;;0.84;100.00
73429;BME280;61643;49.564;17.412;2023-12-20T06:27:02;97634.63;;;0.86;100.00
73429;BME280;61643;49.564;17.412;2023-12-20T06:29:28;97629.91;;;0.88;100.00
73429;BME280;61643;49.564;17.412;2023-12-20T06:31:54;97635.25;;;0.75;100.00
73429;BME280;61643;49.564;17.412;2023-12-20T06:34:20;97637.13;;;0.68;100.00
73429;BME280;61643;49.564;17.412;2023-12-20T06:36:46;97639.53;;;0.82;100.00
73429;BME280;61643;49.564;17.412;2023-12-20T06:39:12;97643.00;;;0.76;100.00
73429;BME280;61643;49.564;17.412;2023-12-20T06:41:38;97637.50;;;0.78;100.00
73429;BME280;61643;49.564;17.412;2023-12-20T06:44:04;97641.16;;;0.77;100.00
73429;BME280;61643;49.564;17.412;2023-12-20T06:46:30;97645.03;;;0.81;100.00
73429;BME280;61643;49.564;17.412;2023-12-20T06:48:56;97649.09;;;0.77;100.00
73429;BME280;61643;49.564;17.412;2023-12-20T06:51:22;97645.25;;;0.79;100.00
73429;BME280;61643;49.564;17.412;2023-12-20T06:53:52;97642.78;;;0.78;100.00
73429;BME280;61643;49.564;17.412;2023-12-20T06:56:36;97651.16;;;0.75;100.00
73429;BME280;61643;49.564;17.412;2023-12-20T06:59:02;97648.09;;;0.78;100.00
73429;BME280;61643;49.564;17.412;2023-12-20T07:01:28;97652.56;;;0.77;100.00
73429;BME280;61643;49.564;17.412;2023-12-20T07:03:54;97640.13;;;0.78;100.00
73429;BME280;61643;49.564;17.412;2023-12-20T07:06:20;97650.53;;;0.79;100.00
73429;BME280;61643;49.564;17.412;2023-12-20T07:08:46;97648.06;;;0.84;100.00
73429;BME280;61643;49.564;17.412;2023-12-20T07:11:12;97655.97;;;0.91;100.00
73429;BME280;61643;49.564;17.412;2023-12-20T07:13:38;97655.97;;;0.97;100.00
73429;BME280;61643;49.564;17.412;2023-12-20T07:16:04;97658.25;;;0.94;100.00
73429;BME280;61643;49.564;17.412;2023-12-20T07:18:30;97663.94;;;0.97;100.00
73429;BME280;61643;49.564;17.412;2023-12-20T07:20:56;97660.25;;;0.92;100.00
73429;BME280;61643;49.564;17.412;2023-12-20T07:23:22;97657.81;;;0.97;100.00
73429;BME280;61643;49.564;17.412;2023-12-20T07:25:48;97655.00;;;0.85;100.00
73429;BME280;61643;49.564;17.412;2023-12-20T07:28:14;97659.91;;;0.82;100.00
73429;BME280;61643;49.564;17.412;2023-12-20T07:30:40;97664.31;;;0.94;100.00
73429;BME280;61643;49.564;17.412;2023-12-20T07:33:06;97662.31;;;0.90;100.00
73429;BME280;61643;49.564;17.412;2023-12-20T07:35:34;97662.72;;;0.93;100.00
73429;BME280;61643;49.564;17.412;2023-12-20T07:38:00;97665.16;;;0.88;100.00
73429;BME280;61643;49.564;17.412;2023-12-20T07:40:26;97662.50;;;0.95;100.00
73429;BME280;61643;49.564;17.412;2023-12-20T07:42:52;97664.75;;;0.91;100.00
73429;BME280;61643;49.564;17.412;2023-12-20T07:45:18;97667.19;;;0.93;100.00
73429;BME280;61643;49.564;17.412;2023-12-20T07:47:44;97671.06;;;0.97;100.00
73429;BME280;61643;49.564;17.412;2023-12-20T07:50:10;97679.44;;;0.87;100.00
73429;BME280;61643;49.564;17.412;2023-12-20T07:52:36;97676.97;;;0.92;100.00
73429;BME280;61643;49.564;17.412;2023-12-20T07:55:02;97676.78;;;0.94;100.00
73429;BME280;61643;49.564;17.412;2023-12-20T07:57:31;97663.28;;;1.02;100.00
73429;BME280;61643;49.564;17.412;2023-12-20T07:59:56;97660.63;;;1.02;100.00
73429;BME280;61643;49.564;17.412;2023-12-20T08:02:22;97668.00;;;1.00;100.00
73429;BME280;61643;49.564;17.412;2023-12-20T08:04:48;97665.94;;;1.02;100.00
73429;BME280;61643;49.564;17.412;2023-12-20T08:07:14;97672.25;;;1.08;100.00
73429;BME280;61643;49.564;17.412;2023-12-20T08:09:40;97671.59;;;1.12;100.00
73429;BME280;61643;49.564;17.412;2023-12-20T08:12:06;97674.50;;;1.04;100.00
73429;BME280;61643;49.564;17.412;2023-12-20T08:14:33;97678.16;;;1.03;100.00
73429;BME280;61643;49.564;17.412;2023-12-20T08:16:59;97674.09;;;1.01;100.00
73429;BME280;61643;49.564;17.412;2023-12-20T08:19:25;97678.63;;;0.93;100.00
73429;BME280;61643;49.564;17.412;2023-12-20T08:21:50;97675.34;;;0.91;100.00
73429;BME280;61643;49.564;17.412;2023-12-20T08:24:17;97681.84;;;0.95;100.00
73429;BME280;61643;49.564;17.412;2023-12-20T08:26:43;97691.63;;;0.95;100.00
73429;BME280;61643;49.564;17.412;2023-12-20T08:29:08;97693.88;;;0.98;100.00
73429;BME280;61643;49.564;17.412;2023-12-20T08:31:34;97684.31;;;0.84;100.00
73429;BME280;61643;49.564;17.412;2023-12-20T08:34:00;97695.91;;;0.96;100.00
73429;BME280;61643;49.564;17.412;2023-12-20T08:36:26;97685.34;;;0.89;100.00
73429;BME280;61643;49.564;17.412;2023-12-20T08:38:52;97689.19;;;0.87;100.00
73429;BME280;61643;49.564;17.412;2023-12-20T08:41:18;97699.41;;;0.90;100.00
73429;BME280;61643;49.564;17.412;2023-12-20T08:43:46;97694.91;;;0.97;100.00
73429;BME280;61643;49.564;17.412;2023-12-20T08:46:14;97700.22;;;0.84;100.00
73429;BME280;61643;49.564;17.412;2023-12-20T08:48:40;97699.78;;;1.00;100.00
73429;BME280;61643;49.564;17.412;2023-12-20T08:51:06;97700.38;;;1.02;100.00
73429;BME280;61643;49.564;17.412;2023-12-20T08:53:34;97708.34;;;0.95;100.00
73429;BME280;61643;49.564;17.412;2023-12-20T08:56:00;97712.63;;;1.03;100.00
73429;BME280;61643;49.564;17.412;2023-12-20T08:58:28;97716.91;;;1.04;100.00
73429;BME280;61643;49.564;17.412;2023-12-20T09:00:54;97716.47;;;1.07;100.00
73429;BME280;61643;49.564;17.412;2023-12-20T09:03:20;97711.78;;;1.16;100.00
73429;BME280;61643;49.564;17.412;2023-12-20T09:05:45;97710.16;;;1.08;100.00
73429;BME280;61643;49.564;17.412;2023-12-20T09:08:11;97716.66;;;1.12;100.00
73429;BME280;61643;49.564;17.412;2023-12-20T09:10:38;97711.56;;;1.11;100.00
73429;BME280;61643;49.564;17.412;2023-12-20T09:13:04;97714.59;;;1.21;100.00
73429;BME280;61643;49.564;17.412;2023-12-20T09:15:30;97717.84;;;1.16;100.00
73429;BME280;61643;49.564;17.412;2023-12-20T09:17:56;97713.34;;;1.23;100.00
73429;BME280;61643;49.564;17.412;2023-12-20T09:20:22;97707.66;;;1.20;100.00
73429;BME280;61643;49.564;17.412;2023-12-20T09:22:49;97712.72;;;1.28;100.00
73429;BME280;61643;49.564;17.412;2023-12-20T09:25:15;97720.66;;;1.34;100.00
73429;BME280;61643;49.564;17.412;2023-12-20T09:27:43;97710.84;;;1.35;100.00
73429;BME280;61643;49.564;17.412;2023-12-20T09:30:09;97719.25;;;1.32;100.00
73429;BME280;61643;49.564;17.412;2023-12-20T09:32:35;97710.72;;;1.17;100.00
73429;BME280;61643;49.564;17.412;2023-12-20T09:35:03;97710.69;;;1.30;100.00
73429;BME280;61643;49.564;17.412;2023-12-20T09:37:31;97714.53;;;1.34;100.00
73429;BME280;61643;49.564;17.412;2023-12-20T09:39:57;97716.00;;;1.23;100.00
73429;BME280;61643;49.564;17.412;2023-12-20T09:42:39;97711.09;;;1.33;100.00
73429;BME280;61643;49.564;17.412;2023-12-20T09:45:09;97704.19;;;1.26;100.00
73429;BME280;61643;49.564;17.412;2023-12-20T09:47:39;97709.66;;;1.37;100.00
73429;BME280;61643;49.564;17.412;2023-12-20T09:50:06;97697.16;;;1.44;100.00
73429;BME280;61643;49.564;17.412;2023-12-20T09:52:33;97701.63;;;1.51;100.00
73429;BME280;61643;49.564;17.412;2023-12-20T09:55:01;97696.69;;;1.54;100.00
73429;BME280;61643;49.564;17.412;2023-12-20T09:57:29;97685.88;;;1.56;100.00
73429;BME280;61643;49.564;17.412;2023-12-20T09:59:55;97679.00;;;1.48;100.00
73429;BME280;61643;49.564;17.412;2023-12-20T10:02:24;97689.22;;;1.44;100.00
73429;BME280;61643;49.564;17.412;2023-12-20T10:04:54;97685.94;;;1.42;100.00
73429;BME280;61643;49.564;17.412;2023-12-20T10:07:20;97682.25;;;1.50;100.00
73429;BME280;61643;49.564;17.412;2023-12-20T10:09:47;97671.03;;;1.48;100.00
73429;BME280;61643;49.564;17.412;2023-12-20T10:12:14;97671.25;;;1.46;100.00
73429;BME280;61643;49.564;17.412;2023-12-20T10:14:40;97675.16;;;1.44;100.00
73429;BME280;61643;49.564;17.412;2023-12-20T10:17:06;97669.88;;;1.37;100.00
73429;BME280;61643;49.564;17.412;2023-12-20T10:19:33;97686.28;;;1.53;100.00
73429;BME280;61643;49.564;17.412;2023-12-20T10:21:59;97684.47;;;1.53;100.00
73429;BME280;61643;49.564;17.412;2023-12-20T10:24:28;97680.25;;;1.39;100.00
73429;BME280;61643;49.564;17.412;2023-12-20T10:27:05;97683.25;;;1.49;100.00
73429;BME280;61643;49.564;17.412;2023-12-20T10:29:35;97679.78;;;1.48;100.00
73429;BME280;61643;49.564;17.412;2023-12-20T10:32:26;97682.44;;;1.48;100.00
73429;BME280;61643;49.564;17.412;2023-12-20T10:34:55;97691.78;;;1.58;100.00
73429;BME280;61643;49.564;17.412;2023-12-20T10:37:22;97692.66;;;1.45;100.00
73429;BME280;61643;49.564;17.412;2023-12-20T10:39:52;97685.47;;;1.52;100.00
73429;BME280;61643;49.564;17.412;2023-12-20T10:42:22;97680.75;;;1.61;100.00
73429;BME280;61643;49.564;17.412;2023-12-20T10:44:51;97679.09;;;1.66;100.00
73429;BME280;61643;49.564;17.412;2023-12-20T10:47:24;97681.97;;;1.65;100.00
73429;BME280;61643;49.564;17.412;2023-12-20T10:49:52;97680.88;;;1.72;100.00
73429;BME280;61643;49.564;17.412;2023-12-20T10:52:18;97669.66;;;1.70;100.00
73429;BME280;61643;49.564;17.412;2023-12-20T10:54:46;97676.16;;;1.81;100.00
73429;BME280;61643;49.564;17.412;2023-12-20T10:57:12;97674.84;;;1.90;100.00
73429;BME280;61643;49.564;17.412;2023-12-20T10:59:39;97679.44;;;1.76;100.00
73429;BME280;61643;49.564;17.412;2023-12-20T11:02:05;97677.22;;;1.73;100.00
73429;BME280;61643;49.564;17.412;2023-12-20T11:04:55;97673.66;;;1.86;100.00
73429;BME280;61643;49.564;17.412;2023-12-20T11:07:35;97654.75;;;1.76;100.00
73429;BME280;61643;49.564;17.412;2023-12-20T11:10:16;97665.09;;;1.84;100.00
73429;BME280;61643;49.564;17.412;2023-12-20T11:12:50;97670.03;;;1.80;100.00
73429;BME280;61643;49.564;17.412;2023-12-20T11:15:19;97655.09;;;1.86;100.00
73429;BME280;61643;49.564;17.412;2023-12-20T11:17:45;97660.25;;;1.81;100.00
73429;BME280;61643;49.564;17.412;2023-12-20T11:20:14;97658.00;;;1.78;100.00
73429;BME280;61643;49.564;17.412;2023-12-20T11:22:51;97658.97;;;1.83;100.00
73429;BME280;61643;49.564;17.412;2023-12-20T11:25:18;97648.25;;;1.72;100.00
73429;BME280;61643;49.564;17.412;2023-12-20T11:27:44;97650.06;;;1.71;100.00
73429;BME280;61643;49.564;17.412;2023-12-20T11:30:11;97656.19;;;1.72;100.00
73429;BME280;61643;49.564;17.412;2023-12-20T11:32:37;97641.25;;;1.77;100.00
73429;BME280;61643;49.564;17.412;2023-12-20T11:37:35;97643.44;;;1.87;100.00
73429;BME280;61643;49.564;17.412;2023-12-20T11:40:03;97649.66;;;1.99;100.00
73429;BME280;61643;49.564;17.412;2023-12-20T11:42:38;97651.56;;;1.92;100.00
73429;BME280;61643;49.564;17.412;2023-12-20T11:45:04;97653.88;;;1.82;100.00
73429;BME280;61643;49.564;17.412;2023-12-20T11:47:31;97646.31;;;1.85;100.00
73429;BME280;61643;49.564;17.412;2023-12-20T11:49:57;97633.84;;;1.86;100.00
73429;BME280;61643;49.564;17.412;2023-12-20T11:52:23;97627.09;;;1.90;100.00
73429;BME280;61643;49.564;17.412;2023-12-20T11:54:49;97621.34;;;1.93;100.00
73429;BME280;61643;49.564;17.412;2023-12-20T11:57:16;97633.97;;;1.97;100.00
73429;BME280;61643;49.564;17.412;2023-12-20T11:59:42;97626.84;;;1.98;100.00
73429;BME280;61643;49.564;17.412;2023-12-20T12:02:11;97633.97;;;1.97;100.00
73429;BME280;61643;49.564;17.412;2023-12-20T12:04:38;97626.38;;;2.01;100.00
73429;BME280;61643;49.564;17.412;2023-12-20T12:07:04;97624.75;;;2.00;100.00
73429;BME280;61643;49.564;17.412;2023-12-20T12:09:30;97616.41;;;1.96;100.00
73429;BME280;61643;49.564;17.412;2023-12-20T12:11:55;97625.97;;;2.04;100.00
73429;BME280;61643;49.564;17.412;2023-12-20T12:14:22;97616.34;;;2.03;100.00
73429;BME280;61643;49.564;17.412;2023-12-20T12:16:48;97609.44;;;2.02;100.00
73429;BME280;61643;49.564;17.412;2023-12-20T12:19:25;97614.31;;;2.05;100.00
73429;BME280;61643;49.564;17.412;2023-12-20T12:24:33;97604.00;;;2.15;100.00
73429;BME280;61643;49.564;17.412;2023-12-20T12:26:59;97594.47;;;2.08;100.00
73429;BME280;61643;49.564;17.412;2023-12-20T12:29:25;97597.75;;;2.10;100.00
73429;BME280;61643;49.564;17.412;2023-12-20T12:31:51;97604.00;;;2.15;100.00
73429;BME280;61643;49.564;17.412;2023-12-20T12:34:17;97603.94;;;2.22;100.00
73429;BME280;61643;49.564;17.412;2023-12-20T12:36:43;97597.19;;;2.26;100.00
73429;BME280;61643;49.564;17.412;2023-12-20T12:39:13;97600.66;;;2.26;100.00
73429;BME280;61643;49.564;17.412;2023-12-20T12:41:41;97596.16;;;2.27;100.00
73429;BME280;61643;49.564;17.412;2023-12-20T12:44:07;97596.97;;;2.27;100.00
73429;BME280;61643;49.564;17.412;2023-12-20T12:46:33;97604.94;;;2.27;100.00
73429;BME280;61643;49.564;17.412;2023-12-20T12:48:59;97601.66;;;2.25;100.00
73429;BME280;61643;49.564;17.412;2023-12-20T12:51:25;97598.00;;;2.26;100.00
73429;BME280;61643;49.564;17.412;2023-12-20T12:53:52;97593.25;;;2.28;100.00